Time;durP1;ratioP1;P1;durP2;ratioP2;P2;SDS_P1;SDS_P2;PMS_P1;PMS_P2;Temp;Humidity;BMP_temperature;BMP_pressure;BME280_temperature;BME280_humidity;BME280_pressure;Samples;Min_cycle;Max_cycle;Signal;HPM_P1;HPM_P2
2022/08/15 00:00:45;;;;;;;11.18;8.43;;;;;;;23.25;55.78;99606.13;5057071;28;20045;-78
2022/08/15 00:03:24;;;;;;;10.05;7.93;;;;;;;23.31;55.64;99599.72;5057363;28;20106;-79
2022/08/15 00:05:52;;;;;;;9.15;8.18;;;;;;;23.31;55.27;99601.59;5057558;28;20059;-79
2022/08/15 00:08:20;;;;;;;8.85;7.97;;;;;;;23.29;55.25;99601.84;5057021;28;20098;-79
2022/08/15 00:10:48;;;;;;;10.05;7.28;;;;;;;23.34;55.31;99599.19;5056709;28;20412;-80
2022/08/15 00:13:18;;;;;;;11.00;7.47;;;;;;;23.41;54.26;99612.28;5056326;28;20099;-79
2022/08/15 00:15:48;;;;;;;13.90;6.68;;;;;;;23.64;52.20;99597.66;5056517;28;20127;-80
2022/08/15 00:18:15;;;;;;;12.48;7.05;;;;;;;23.83;51.60;99601.41;5057784;28;20060;-80
2022/08/15 00:20:43;;;;;;;10.40;6.20;;;;;;;23.88;51.27;99588.03;5056541;28;20049;-79
2022/08/15 00:23:13;;;;;;;13.88;6.65;;;;;;;24.01;50.44;99598.19;5056866;28;20041;-78
2022/08/15 00:25:45;;;;;;;10.32;6.20;;;;;;;24.06;50.57;99590.16;5056478;28;20395;-80
2022/08/15 00:28:12;;;;;;;11.00;6.40;;;;;;;24.11;50.88;99587.47;5056480;28;20088;-80
2022/08/15 00:30:39;;;;;;;11.75;7.00;;;;;;;24.02;51.11;99593.63;5056250;28;20057;-78
2022/08/15 00:33:07;;;;;;;10.30;6.65;;;;;;;24.00;51.10;99590.44;5055035;28;20045;-77
2022/08/15 00:35:37;;;;;;;12.75;6.82;;;;;;;23.96;51.56;99590.16;5054293;28;20083;-78
2022/08/15 00:38:04;;;;;;;11.00;6.20;;;;;;;23.93;51.67;99589.91;5053599;28;20053;-79
2022/08/15 00:41:38;;;;;;;12.95;6.40;;;;;;;23.94;51.50;99597.66;5053928;28;20036;-77
2022/08/15 00:43:20;;;;;;;6.57;5.70;;;;;;;23.97;51.23;99605.13;5053449;28;20059;-78
2022/08/15 00:45:47;;;;;;;9.65;6.28;;;;;;;23.90;51.75;99601.13;5053303;28;20041;-77
2022/08/15 00:50:58;;;;;;;8.38;5.95;;;;;;;;;;5055642;28;20060;-79
2022/08/15 00:53:26;;;;;;;10.55;5.97;;;;;;;23.75;52.36;99593.91;5054971;28;20060;-79
2022/08/15 00:55:53;;;;;;;10.02;5.72;;;;;;;23.75;52.11;99599.25;5055192;28;20076;-80
2022/08/15 00:58:22;;;;;;;10.32;5.28;;;;;;;23.71;52.37;99608.88;5043127;28;20508;-79
2022/08/15 01:00:49;;;;;;;10.63;5.78;;;;;;;23.71;52.52;99607.00;5041680;28;20072;-81
2022/08/15 01:03:20;;;;;;;8.57;5.30;;;;;;;23.68;52.52;99609.41;5054816;28;20044;-80
2022/08/15 01:05:51;;;;;;;7.53;5.00;;;;;;;23.64;52.60;99609.13;5055156;28;20045;-80
2022/08/15 01:08:20;;;;;;;18.48;5.97;;;;;;;23.62;53.14;99618.50;5054725;28;20081;-80
2022/08/15 01:10:48;;;;;;;12.15;5.75;;;;;;;23.56;53.30;99617.69;5055413;28;20131;-80
2022/08/15 01:13:15;;;;;;;9.45;5.28;;;;;;;23.51;53.44;99623.00;5053791;28;20048;-79
2022/08/15 01:15:43;;;;;;;9.75;5.38;;;;;;;23.50;53.74;99627.53;5053983;28;20037;-80
2022/08/15 01:18:10;;;;;;;11.02;5.93;;;;;;;23.47;54.10;99617.38;5054588;28;20131;-78
2022/08/15 01:20:37;;;;;;;13.35;5.70;;;;;;;23.48;53.89;99618.97;5054536;28;20064;-79
2022/08/15 01:23:13;;;;;;;20.85;6.55;;;;;;;23.46;54.53;99615.78;5055257;28;20048;-79
2022/08/15 01:25:45;;;;;;;8.85;5.55;;;;;;;23.51;53.73;99620.31;5054679;28;20048;-78
2022/08/15 01:28:16;;;;;;;13.30;5.65;;;;;;;23.53;54.47;99612.88;5053731;28;20080;-79
2022/08/15 01:30:46;;;;;;;8.68;5.32;;;;;;;23.54;54.42;99616.34;5053681;28;20087;-79
2022/08/15 01:33:13;;;;;;;10.30;5.47;;;;;;;23.62;54.22;99615.84;5054722;28;20077;-80
2022/08/15 01:35:41;;;;;;;6.97;5.68;;;;;;;23.55;54.85;99615.28;5056926;28;20087;-79
2022/08/15 01:38:20;;;;;;;7.97;5.28;;;;;;;23.61;55.31;99614.22;5056296;28;20049;-80
2022/08/15 01:40:57;;;;;;;9.15;5.35;;;;;;;23.60;55.22;99620.63;5056363;28;20073;-79
2022/08/15 01:43:27;;;;;;;7.22;4.97;;;;;;;23.59;55.75;99621.69;5054132;28;20049;-80
2022/08/15 01:45:58;;;;;;;8.75;5.40;;;;;;;23.59;55.90;99627.03;5055229;28;20041;-78
2022/08/15 01:48:28;;;;;;;8.43;5.15;;;;;;;23.53;56.35;99625.41;5057071;28;20128;-80
2022/08/15 01:51:00;;;;;;;15.57;5.25;;;;;;;23.51;56.67;99628.34;5058487;28;20057;-80
2022/08/15 01:53:33;;;;;;;13.35;4.95;;;;;;;23.54;56.65;99625.16;5061016;28;20072;-79
2022/08/15 01:56:08;;;;;;;7.82;4.90;;;;;;;23.53;57.21;99628.06;5057605;28;20095;-78
2022/08/15 01:58:37;;;;;;;9.45;5.30;;;;;;;23.52;56.66;99621.94;5064912;28;20068;-79
2022/08/15 02:01:08;;;;;;;10.25;5.60;;;;;;;23.55;56.86;99637.44;5057628;28;20076;-78
2022/08/15 02:03:36;;;;;;;9.40;5.22;;;;;;;23.50;57.23;99632.88;5059889;28;20049;-80
2022/08/15 02:06:04;;;;;;;11.18;5.30;;;;;;;23.44;57.53;99641.13;5058495;28;20084;-79
2022/08/15 02:08:31;;;;;;;10.60;5.03;;;;;;;23.41;58.14;99647.81;5056124;28;20076;-78
2022/08/15 02:10:58;;;;;;;12.13;5.20;;;;;;;23.39;57.71;99644.59;5056438;28;20068;-79
2022/08/15 02:13:26;;;;;;;7.85;4.68;;;;;;;23.41;57.82;99641.66;5054410;28;20498;-81
2022/08/15 02:15:53;;;;;;;8.48;5.00;;;;;;;23.36;57.70;99639.78;5053369;28;20411;-79
2022/08/15 02:18:20;;;;;;;11.40;5.05;;;;;;;23.35;57.89;99635.50;5053216;28;20058;-79
2022/08/15 02:20:47;;;;;;;8.13;4.75;;;;;;;23.28;58.29;99640.28;5053052;28;20103;-78
2022/08/15 02:23:14;;;;;;;8.18;4.60;;;;;;;23.25;58.22;99637.34;5053980;28;20080;-79
2022/08/15 02:25:40;;;;;;;7.22;4.53;;;;;;;23.22;58.17;99630.66;5054546;28;20546;-76
2022/08/15 02:28:07;;;;;;;8.20;5.05;;;;;;;23.22;58.48;99641.34;5052557;28;20104;-77
2022/08/15 02:30:35;;;;;;;6.75;5.10;;;;;;;23.24;58.20;99633.06;5052996;28;20085;-79
2022/08/15 02:33:03;;;;;;;8.48;5.00;;;;;;;23.27;58.12;99632.53;5053207;28;20112;-80
2022/08/15 02:35:30;;;;;;;11.30;5.15;;;;;;;23.16;58.35;99640.50;5051995;28;20091;-79
2022/08/15 02:37:58;;;;;;;7.47;4.60;;;;;;;23.16;58.28;99637.03;5052951;28;20110;-79
2022/08/15 02:40:25;;;;;;;9.38;4.55;;;;;;;23.17;58.59;99636.78;5052241;28;20057;-78
2022/08/15 02:42:52;;;;;;;13.68;5.03;;;;;;;23.12;58.38;99638.66;5052019;28;20135;-78
2022/08/15 02:45:19;;;;;;;6.97;4.80;;;;;;;23.07;58.90;99646.66;5052046;28;20084;-79
2022/08/15 02:47:47;;;;;;;11.23;5.70;;;;;;;23.05;58.62;99643.44;5052981;28;20107;-79
2022/08/15 02:50:16;;;;;;;10.43;4.65;;;;;;;22.95;58.97;99640.72;5052127;28;20084;-78
2022/08/15 02:52:49;;;;;;;6.50;4.82;;;;;;;22.93;58.92;99641.00;5052553;28;20059;-77
2022/08/15 02:55:18;;;;;;;6.50;5.20;;;;;;;22.93;59.03;99645.53;5055476;28;20056;-78
2022/08/15 02:57:47;;;;;;;10.43;5.30;;;;;;;22.98;58.90;99642.88;5048833;28;20058;-79
2022/08/15 03:00:16;;;;;;;6.55;4.60;;;;;;;23.00;58.92;99640.75;5036316;28;20050;-79
2022/08/15 03:02:54;;;;;;;9.10;4.97;;;;;;;22.98;59.50;99640.22;5055409;28;20049;-78
2022/08/15 03:05:22;;;;;;;8.70;4.47;;;;;;;22.96;60.13;99645.81;5056236;28;20060;-79
2022/08/15 03:07:48;;;;;;;8.52;4.78;;;;;;;23.00;59.06;99640.75;5055634;28;20490;-79
2022/08/15 03:10:15;;;;;;;8.60;4.45;;;;;;;23.04;59.07;99641.84;5056006;28;20091;-79
2022/08/15 03:12:54;;;;;;;8.75;4.43;;;;;;;23.07;58.49;99641.31;5056409;28;20084;-79
2022/08/15 03:15:22;;;;;;;7.43;4.32;;;;;;;23.11;58.42;99632.53;5055570;28;20072;-79
2022/08/15 03:17:49;;;;;;;9.57;4.72;;;;;;;23.06;58.88;99635.19;5055100;28;20087;-78
2022/08/15 03:20:19;;;;;;;9.45;4.60;;;;;;;23.08;58.41;99632.25;5055245;28;20052;-78
2022/08/15 03:22:48;;;;;;;7.18;4.57;;;;;;;23.05;59.09;99628.22;5054743;28;20503;-77
2022/08/15 03:25:16;;;;;;;8.93;4.65;;;;;;;23.04;58.99;99620.50;5054012;28;20057;-81
2022/08/15 03:27:44;;;;;;;7.97;5.10;;;;;;;23.00;58.93;99622.06;5054161;28;20131;-78
2022/08/15 03:30:13;;;;;;;9.25;4.85;;;;;;;22.96;58.83;99623.66;5054605;28;20100;-78
2022/08/15 03:32:46;;;;;;;7.10;4.70;;;;;;;22.96;59.26;99618.31;5054708;28;20132;-77
2022/08/15 03:35:13;;;;;;;7.25;4.25;;;;;;;22.99;59.27;99609.81;5054473;28;20060;-80
2022/08/15 03:37:42;;;;;;;7.47;5.07;;;;;;;23.00;58.46;99614.06;5035305;28;20548;-79
2022/08/15 03:40:11;;;;;;;9.20;4.82;;;;;;;23.12;57.60;99601.31;5034445;28;20061;-79
2022/08/15 03:42:38;;;;;;;8.15;4.80;;;;;;;23.13;57.89;99608.25;5054172;28;20128;-81
2022/08/15 03:45:10;;;;;;;8.73;4.68;;;;;;;23.12;58.35;99601.31;5057762;28;20125;-79
2022/08/15 03:47:37;;;;;;;8.25;5.20;;;;;;;23.09;58.44;99607.16;5058174;28;20107;-80
2022/08/15 03:50:05;;;;;;;8.18;5.07;;;;;;;23.02;59.04;99603.94;5057837;28;20049;-79
2022/08/15 03:52:32;;;;;;;10.40;5.25;;;;;;;22.98;59.02;99609.00;5058769;28;20072;-78
2022/08/15 03:55:02;;;;;;;7.75;4.53;;;;;;;22.97;59.19;99609.25;5058754;28;20064;-78
2022/08/15 03:57:29;;;;;;;18.08;5.05;;;;;;;22.93;59.16;99608.19;5058997;28;20079;-79
2022/08/15 03:59:56;;;;;;;12.25;5.18;;;;;;;22.91;58.97;99610.31;5056787;28;20167;-79
2022/08/15 04:02:25;;;;;;;12.80;4.88;;;;;;;22.90;59.04;99608.69;5056291;28;20430;-78
2022/08/15 04:04:52;;;;;;;14.75;5.18;;;;;;;22.96;58.81;99600.44;5056774;28;20077;-79
2022/08/15 04:07:19;;;;;;;11.52;4.18;;;;;;;23.01;59.00;99610.34;5057205;28;20455;-79
2022/08/15 04:09:46;;;;;;;7.18;4.53;;;;;;;22.96;58.92;99608.44;5056319;28;20081;-78
2022/08/15 04:12:14;;;;;;;9.63;4.90;;;;;;;22.95;58.95;99609.53;5054753;28;20059;-77
2022/08/15 04:14:40;;;;;;;7.20;4.80;;;;;;;23.06;58.79;99597.81;5055175;28;20053;-79
2022/08/15 04:17:07;;;;;;;6.68;4.63;;;;;;;23.06;58.74;99586.34;5054432;28;20522;-78
2022/08/15 04:19:34;;;;;;;7.68;4.65;;;;;;;23.00;58.90;99574.84;5055447;28;20546;-80
2022/08/15 04:22:03;;;;;;;9.95;4.93;;;;;;;23.02;58.58;99577.25;5056501;28;20080;-80
2022/08/15 04:24:30;;;;;;;7.85;4.40;;;;;;;23.03;58.77;99586.88;5055731;28;20049;-80
2022/08/15 04:26:57;;;;;;;7.18;4.72;;;;;;;23.10;58.15;99587.44;5058673;28;20173;-77
2022/08/15 04:29:25;;;;;;;8.75;4.60;;;;;;;23.15;58.45;99596.25;5059532;28;20135;-81
2022/08/15 04:31:51;;;;;;;8.23;4.55;;;;;;;23.06;58.82;99597.81;5058834;28;20136;-80
2022/08/15 04:34:18;;;;;;;6.40;4.70;;;;;;;23.06;58.65;99599.69;5058072;28;20084;-81
2022/08/15 04:36:46;;;;;;;9.88;5.53;;;;;;;22.99;59.03;99612.47;5057687;28;20095;-77
2022/08/15 04:39:13;;;;;;;8.23;5.65;;;;;;;23.02;59.06;99618.09;5056222;28;20056;-79
2022/08/15 04:41:39;;;;;;;8.45;5.13;;;;;;;23.01;59.18;99621.00;5055508;28;20083;-78
2022/08/15 04:44:07;;;;;;;8.07;4.60;;;;;;;23.03;59.72;99624.22;5057160;28;20103;-79
2022/08/15 04:46:35;;;;;;;9.75;4.88;;;;;;;23.04;59.23;99636.50;5057466;28;20053;-78
2022/08/15 04:49:03;;;;;;;6.63;5.00;;;;;;;22.96;59.46;99639.66;5057027;28;20468;-78
2022/08/15 04:51:29;;;;;;;12.05;4.32;;;;;;;22.90;59.76;99648.72;5056907;28;20156;-79
2022/08/15 04:53:56;;;;;;;9.10;4.45;;;;;;;22.77;60.37;99645.41;5056538;28;20479;-80
2022/08/15 04:56:23;;;;;;;11.05;4.60;;;;;;;22.74;60.20;99642.47;5057187;28;20085;-79
2022/08/15 04:58:50;;;;;;;8.38;4.55;;;;;;;22.76;60.62;99646.47;5044970;28;20054;-79
2022/08/15 05:01:16;;;;;;;7.38;4.60;;;;;;;22.74;61.36;99655.78;5057393;28;20044;-79
2022/08/15 05:03:44;;;;;;;22.85;6.00;;;;;;;22.77;60.72;99642.75;5058286;28;20084;-80
2022/08/15 05:06:11;;;;;;;13.93;5.40;;;;;;;22.78;60.53;99651.56;5057780;28;20515;-79
2022/08/15 05:08:39;;;;;;;14.65;5.18;;;;;;;22.76;61.25;99641.13;5057796;28;20052;-79
2022/08/15 05:11:08;;;;;;;8.85;4.53;;;;;;;22.79;61.48;99643.31;5058639;28;20103;-78
2022/08/15 05:13:36;;;;;;;17.42;6.07;;;;;;;22.82;60.71;99648.13;5057857;28;20057;-79
2022/08/15 05:16:07;;;;;;;12.95;5.60;;;;;;;22.81;61.11;99653.72;5058486;28;20099;-82
2022/08/15 05:18:35;;;;;;;12.57;4.63;;;;;;;22.80;60.97;99652.94;5058946;28;20102;-79
2022/08/15 05:21:03;;;;;;;8.07;4.80;;;;;;;22.86;60.83;99658.28;5059387;28;20087;-82
2022/08/15 05:23:33;;;;;;;10.73;4.80;;;;;;;22.94;60.39;99652.47;5059170;28;20452;-83
2022/08/15 05:26:01;;;;;;;8.88;5.15;;;;;;;23.05;59.80;99646.09;5058407;28;20478;-81
2022/08/15 05:28:28;;;;;;;9.88;5.10;;;;;;;23.02;60.07;99654.63;5060039;28;20049;-82
2022/08/15 05:30:56;;;;;;;14.60;5.57;;;;;;;23.01;60.33;99643.16;5060608;28;20112;-80
2022/08/15 05:33:25;;;;;;;14.45;5.00;;;;;;;23.02;60.66;99646.63;5062211;28;20049;-81
2022/08/15 05:35:54;;;;;;;10.52;4.78;;;;;;;23.09;60.59;99644.53;5063037;28;20060;-79
2022/08/15 05:38:25;;;;;;;8.13;4.82;;;;;;;23.07;60.45;99657.31;5061349;28;20053;-82
2022/08/15 05:41:05;;;;;;;10.85;5.22;;;;;;;23.12;60.61;99657.34;5065315;28;20056;-78
2022/08/15 05:43:42;;;;;;;11.65;4.53;;;;;;;23.10;60.95;99656.81;5064514;28;20053;-79
2022/08/15 05:46:17;;;;;;;9.10;5.25;;;;;;;23.16;61.15;99663.72;5063015;28;20123;-79
2022/08/15 05:48:53;;;;;;;8.13;4.82;;;;;;;23.26;61.03;99676.31;5064879;28;20049;-80
2022/08/15 05:51:29;;;;;;;9.88;5.25;;;;;;;23.29;61.13;99673.94;5065355;28;20037;-80
2022/08/15 05:54:09;;;;;;;10.52;4.90;;;;;;;23.43;60.73;99669.69;5064781;28;20045;-79
2022/08/15 05:56:44;;;;;;;16.77;5.32;;;;;;;23.56;61.17;99675.63;5064893;28;20071;-81
2022/08/15 05:59:14;;;;;;;12.32;5.13;;;;;;;23.67;60.45;99671.91;5063990;28;20049;-82
2022/08/15 06:01:45;;;;;;;12.48;4.95;;;;;;;23.81;60.20;99664.97;5064233;28;20159;-83
2022/08/15 06:04:18;;;;;;;11.10;5.28;;;;;;;23.86;60.18;99675.66;5065164;28;20057;-83
2022/08/15 06:06:47;;;;;;;11.25;5.60;;;;;;;24.00;60.00;99666.06;5063695;28;20527;-83
2022/08/15 06:09:34;;;;;;;20.65;6.95;;;;;;;24.24;59.61;99668.16;5061951;28;20109;-81
2022/08/15 06:12:07;;;;;;;15.85;5.15;;;;;;;24.36;59.24;99663.38;5059999;28;20253;-81
2022/08/15 06:14:39;;;;;;;9.43;5.20;;;;;;;24.42;59.31;99664.97;5064992;28;20053;-81
2022/08/15 06:17:13;;;;;;;12.68;5.03;;;;;;;24.67;58.69;99651.53;5064263;28;20079;-81
2022/08/15 06:19:43;;;;;;;11.77;5.35;;;;;;;24.89;57.77;99655.75;5062125;28;20145;-82
2022/08/15 06:22:21;;;;;;;12.93;4.85;;;;;;;25.35;56.78;99651.78;5063208;28;20224;-81
2022/08/15 06:24:56;;;;;;;13.65;5.28;;;;;;;25.65;56.16;99652.69;5062698;28;20049;-81
2022/08/15 06:27:33;;;;;;;10.23;5.55;;;;;;;25.72;55.45;99659.34;5062256;28;20503;-81
2022/08/15 06:30:07;;;;;;;11.75;5.20;;;;;;;25.49;56.42;99665.38;5066861;28;21784;-81
2022/08/15 06:32:41;;;;;;;14.60;5.88;;;;;;;25.49;56.22;99664.56;5066052;28;20052;-82
2022/08/15 06:35:18;;;;;;;20.33;7.65;;;;;;;25.29;56.54;99665.47;5067976;28;20048;-81
2022/08/15 06:37:58;;;;;;;13.65;6.60;;;;;;;25.14;57.15;99669.03;5066762;28;20045;-82
2022/08/15 06:40:36;;;;;;;15.63;6.15;;;;;;;25.06;57.46;99664.25;5067085;28;20049;-80
2022/08/15 06:43:13;;;;;;;17.48;6.80;;;;;;;25.00;57.87;99670.72;5066465;28;20144;-81
2022/08/15 06:46:08;;;;;;;9.02;4.88;;;;;;;24.89;57.91;99671.78;5065959;28;20037;-81
2022/08/15 06:48:42;;;;;;;18.35;5.50;;;;;;;24.67;58.24;99662.22;5067191;28;20482;-80
2022/08/15 06:51:15;;;;;;;12.10;5.57;;;;;;;24.59;58.61;99675.34;5067275;28;20053;-80
2022/08/15 06:53:54;;;;;;;10.15;5.10;;;;;;;24.50;59.31;99687.69;5066741;28;20045;-81
2022/08/15 06:56:45;;;;;;;13.02;5.30;;;;;;;24.37;59.23;99678.34;5045937;28;20054;-81
2022/08/15 06:59:49;;;;;;;10.55;5.47;;;;;;;24.31;59.19;99672.19;5061516;28;20077;-80
2022/08/15 07:02:29;;;;;;;10.32;5.03;;;;;;;24.25;59.64;99683.13;5065704;28;20147;-80
2022/08/15 07:05:05;;;;;;;13.95;5.90;;;;;;;24.24;60.05;99689.56;5065870;28;20478;-81
2022/08/15 07:07:41;;;;;;;11.25;5.97;;;;;;;24.33;60.11;99685.31;5066678;28;20045;-79
2022/08/15 07:10:15;;;;;;;11.38;5.30;;;;;;;24.41;60.20;99692.78;5066277;28;20052;-80
2022/08/15 07:12:52;;;;;;;6.60;4.70;;;;;;;24.31;59.72;99693.59;5067989;28;20049;-79
2022/08/15 07:15:26;;;;;;;11.90;5.35;;;;;;;24.27;60.26;99697.06;5066035;28;20044;-78
2022/08/15 07:18:00;;;;;;;8.13;5.10;;;;;;;24.30;60.13;99700.00;5066440;28;20071;-79
2022/08/15 07:20:27;;;;;;;39.30;13.88;;;;;;;24.37;60.58;99715.78;5066440;28;20103;-78
2022/08/15 07:22:54;;;;;;;8.35;5.30;;;;;;;24.32;60.66;99721.13;5066453;28;20045;-80
2022/08/15 07:25:32;;;;;;;11.93;6.20;;;;;;;24.30;60.69;99717.91;5062196;28;20047;-78
2022/08/15 07:28:05;;;;;;;12.18;5.65;;;;;;;24.40;60.78;99717.91;5063976;28;20060;-80
2022/08/15 07:30:45;;;;;;;13.10;5.82;;;;;;;24.60;60.05;99717.06;5065383;28;20052;-80
2022/08/15 07:33:29;;;;;;;11.18;5.45;;;;;;;24.57;60.14;99715.75;5066287;28;20491;-80
2022/08/15 07:36:00;;;;;;;10.27;5.53;;;;;;;24.51;60.82;99718.72;5064194;28;20102;-79
2022/08/15 07:38:30;;;;;;;11.45;5.28;;;;;;;24.52;60.53;99714.97;5060190;28;20150;-80
2022/08/15 07:41:14;;;;;;;11.95;5.60;;;;;;;24.36;60.84;99723.00;5056752;28;20154;-80
2022/08/15 07:43:42;;;;;;;11.93;6.95;;;;;;;24.44;60.80;99721.66;5040079;28;20045;-80
2022/08/15 07:46:13;;;;;;;8.85;5.45;;;;;;;24.60;60.60;99720.53;5047031;28;20051;-77
2022/08/15 07:48:42;;;;;;;13.50;5.70;;;;;;;24.38;61.50;99726.22;5058721;28;20128;-79
2022/08/15 07:51:23;;;;;;;11.98;6.47;;;;;;;24.30;62.09;99734.75;5058883;28;20049;-81
2022/08/15 07:53:52;;;;;;;8.55;5.75;;;;;;;24.27;62.11;99739.84;5060781;28;20499;-78
2022/08/15 07:56:19;;;;;;;14.32;6.20;;;;;;;24.06;63.16;99737.16;5061144;28;20405;-79
2022/08/15 07:58:52;;;;;;;9.80;5.78;;;;;;;24.08;63.22;99740.34;5061281;28;20049;-80
2022/08/15 08:01:23;;;;;;;13.20;6.97;;;;;;;24.04;63.81;99741.97;5060491;28;20128;-80
2022/08/15 08:03:55;;;;;;;14.43;6.50;;;;;;;23.99;63.89;99739.28;5060267;28;20152;-80
2022/08/15 08:06:29;;;;;;;9.52;6.20;;;;;;;23.97;64.46;99737.94;5061908;28;20114;-81
2022/08/15 08:09:03;;;;;;;13.60;6.30;;;;;;;23.98;64.85;99745.69;5060144;28;20100;-81
2022/08/15 08:11:44;;;;;;;11.63;6.65;;;;;;;24.23;63.95;99734.19;5062420;28;20052;-81
2022/08/15 08:14:19;;;;;;;11.32;6.78;;;;;;;24.40;63.83;99742.78;5061115;28;20060;-80
2022/08/15 08:16:56;;;;;;;9.98;6.85;;;;;;;24.59;63.37;99737.66;5058779;28;20053;-80
2022/08/15 08:19:34;;;;;;;10.48;6.22;;;;;;;24.27;63.99;99739.84;5056849;28;20425;-82
2022/08/15 08:22:11;;;;;;;12.98;6.18;;;;;;;24.16;64.31;99747.81;5060172;28;20124;-80
2022/08/15 08:24:54;;;;;;;10.13;6.38;;;;;;;24.12;64.26;99744.06;5060865;28;20148;-81
2022/08/15 08:27:35;;;;;;;11.95;6.03;;;;;;;24.03;64.66;99745.69;5060002;28;20500;-80
2022/08/15 08:30:08;;;;;;;10.50;6.25;;;;;;;24.13;64.72;99744.88;5060160;28;20100;-80
2022/08/15 08:32:44;;;;;;;12.52;5.82;;;;;;;23.97;64.95;99743.28;5054172;28;20076;-80
2022/08/15 08:35:19;;;;;;;18.05;6.70;;;;;;;23.97;65.34;99752.09;5060789;28;20092;-80
2022/08/15 08:37:54;;;;;;;13.98;6.97;;;;;;;24.06;65.20;99750.50;5061203;28;20055;-80
2022/08/15 08:43:38;;;;;;;16.42;6.95;;;;;;;24.22;64.80;99753.16;5057018;28;20446;-80
2022/08/15 08:46:19;;;;;;;11.18;6.47;;;;;;;24.24;64.83;99751.03;5056654;28;20079;-81
2022/08/15 08:48:58;;;;;;;10.13;6.22;;;;;;;24.30;64.45;99756.16;5058658;28;20136;-81
2022/08/15 08:51:34;;;;;;;10.23;5.80;;;;;;;24.20;64.76;99752.63;5059155;28;20099;-81
2022/08/15 08:54:08;;;;;;;10.43;5.78;;;;;;;24.35;64.64;99752.69;5057221;28;20112;-81
2022/08/15 08:56:38;;;;;;;11.18;5.90;;;;;;;24.24;64.35;99762.53;5058244;28;20080;-81
2022/08/15 08:59:17;;;;;;;13.73;6.00;;;;;;;24.03;65.22;99760.94;5049791;28;20048;-82
2022/08/15 09:01:46;;;;;;;11.25;6.25;;;;;;;23.91;65.89;99763.84;5058609;28;20049;-81
2022/08/15 09:04:21;;;;;;;9.50;5.65;;;;;;;23.88;66.00;99759.03;5056980;28;20499;-83
2022/08/15 09:06:50;;;;;;;9.93;5.80;;;;;;;23.99;65.67;99757.97;5091551;22;20079;-77
2022/08/15 09:09:27;;;;;;;9.68;5.78;;;;;;;24.06;65.60;99749.72;5069068;28;20072;-78
2022/08/15 09:11:58;;;;;;;11.23;5.90;;;;;;;24.14;65.30;99754.50;5070686;28;20131;-77
2022/08/15 09:14:30;;;;;;;13.80;5.63;;;;;;;24.01;66.05;99763.88;5071257;28;20426;-78
2022/08/15 09:17:04;;;;;;;10.40;5.82;;;;;;;23.92;66.29;99765.44;5063933;28;20045;-76
2022/08/15 09:19:43;;;;;;;16.60;7.18;;;;;;;23.99;66.22;99770.53;5051097;28;20044;-76
2022/08/15 09:22:10;;;;;;;14.30;6.10;;;;;;;24.23;65.66;99768.13;5050420;28;20081;-77
2022/08/15 09:24:38;;;;;;;14.82;5.50;;;;;;;24.40;64.82;99764.19;5070783;28;20054;-77
2022/08/15 09:27:12;;;;;;;14.15;5.90;;;;;;;24.53;64.54;99762.84;5070943;28;20083;-79
2022/08/15 09:29:43;;;;;;;10.90;5.35;;;;;;;24.50;64.19;99759.91;5070689;28;20055;-77
2022/08/15 09:32:28;;;;;;;17.40;6.22;;;;;;;24.52;64.14;99755.88;5069891;28;20040;-75
2022/08/15 09:35:15;;;;;;;8.52;5.43;;;;;;;24.66;64.29;99764.13;5071561;28;20048;-80
2022/08/15 09:38:07;;;;;;;10.15;5.72;;;;;;;24.77;64.20;99752.34;5071655;28;20091;-79
2022/08/15 09:40:47;;;;;;;12.43;5.37;;;;;;;25.17;63.72;99754.16;5071194;28;20088;-77
2022/08/15 09:43:30;;;;;;;11.45;5.95;;;;;;;25.26;62.38;99747.16;5070818;28;20076;-78
2022/08/15 09:46:22;;;;;;;11.68;5.78;;;;;;;25.33;62.24;99747.66;5070989;28;20135;-77
2022/08/15 09:49:04;;;;;;;14.43;5.78;;;;;;;25.07;62.74;99765.69;5070542;28;20044;-77
2022/08/15 09:51:59;;;;;;;11.02;5.55;;;;;;;24.97;63.12;99770.28;5070565;28;20131;-77
2022/08/15 09:54:29;;;;;;;12.23;5.53;;;;;;;25.07;62.86;99762.22;5048205;28;20076;-78
2022/08/15 09:57:21;;;;;;;14.68;5.75;;;;;;;25.06;62.85;99763.28;5049023;28;20084;-76
2022/08/15 09:59:52;;;;;;;10.07;5.50;;;;;;;25.00;62.30;99762.53;5047655;28;20056;-78
2022/08/15 10:02:23;;;;;;;10.20;5.63;;;;;;;24.91;62.73;99774.00;5045528;28;20510;-77
2022/08/15 10:05:22;;;;;;;8.88;5.53;;;;;;;24.83;62.75;99778.03;5051324;28;20136;-77
2022/08/15 10:07:51;;;;;;;8.80;5.25;;;;;;;24.78;63.52;99776.16;5053684;28;20052;-77
2022/08/15 10:10:56;;;;;;;10.10;5.50;;;;;;;24.86;63.45;99768.66;5053650;28;20048;-77
2022/08/15 10:13:45;;;;;;;12.15;5.20;;;;;;;25.16;62.96;99773.97;5037307;28;20057;-78
2022/08/15 10:16:47;;;;;;;9.65;5.45;;;;;;;25.25;62.76;99761.63;5065917;28;20056;-77
2022/08/15 10:19:29;;;;;;;12.45;5.60;;;;;;;25.29;62.46;99757.31;5052912;28;20448;-78
2022/08/15 10:21:58;;;;;;;11.80;5.38;;;;;;;25.41;61.53;99767.72;5053945;28;20056;-78
2022/08/15 10:24:29;;;;;;;10.40;5.53;;;;;;;25.31;61.95;99760.53;5051393;28;20056;-78
2022/08/15 10:27:23;;;;;;;9.48;5.43;;;;;;;25.45;61.22;99766.91;5053246;28;20049;-79
2022/08/15 10:29:53;;;;;;;12.32;5.18;;;;;;;25.45;60.79;99766.09;5053703;28;20077;-76
2022/08/15 10:32:35;;;;;;;9.90;5.18;;;;;;;25.50;60.78;99773.31;5052590;28;20045;-77
2022/08/15 10:35:06;;;;;;;8.35;5.13;;;;;;;25.57;61.22;99768.44;5033700;28;20049;-76
2022/08/15 10:37:41;;;;;;;10.18;5.50;;;;;;;25.49;61.07;99777.88;5054387;28;20120;-79
2022/08/15 10:40:40;;;;;;;11.80;5.50;;;;;;;25.68;60.58;99773.50;5056829;28;20048;-80
2022/08/15 10:43:17;;;;;;;11.13;5.70;;;;;;;25.75;60.97;99773.19;5052627;28;20125;-77
2022/08/15 10:45:48;;;;;;;14.52;6.35;;;;;;;25.76;61.61;99782.84;5053132;28;20056;-80
2022/08/15 10:48:28;;;;;;;8.07;5.20;;;;;;;25.67;63.10;99785.31;5046206;28;20073;-80
2022/08/15 10:51:16;;;;;;;10.13;5.10;;;;;;;25.73;62.51;99786.06;5045505;28;20136;-78
2022/08/15 10:53:48;;;;;;;9.90;5.90;;;;;;;25.52;62.97;99784.56;5044693;28;20104;-80
2022/08/15 10:56:20;;;;;;;8.77;5.75;;;;;;;25.45;62.90;99782.19;5050202;28;20507;-79
2022/08/15 10:58:49;;;;;;;12.90;5.45;;;;;;;25.24;64.06;99792.16;5063025;28;20132;-78
2022/08/15 11:01:21;;;;;;;10.40;5.38;;;;;;;25.03;62.89;99791.41;5063431;28;20049;-79
2022/08/15 11:03:50;;;;;;;;;;;;;;;24.98;62.84;99787.94;5053283;28;20053;-79
2022/08/15 11:06:20;;;;;;;11.70;5.85;;;;;;;24.77;62.72;99781.78;5049236;28;19995;-77
2022/08/15 11:08:51;;;;;;;9.38;5.68;;;;;;;24.63;63.84;99807.47;5055039;28;20041;-78
2022/08/15 11:11:22;;;;;;;11.40;5.97;;;;;;;24.55;65.17;99795.47;5053759;28;20128;-79
2022/08/15 11:13:53;;;;;;;15.18;6.88;;;;;;;24.52;66.40;99792.53;5054391;28;20080;-78
2022/08/15 11:16:31;;;;;;;11.45;5.97;;;;;;;24.56;66.54;99797.06;5053661;28;20077;-78
2022/08/15 11:19:00;;;;;;;10.88;5.90;;;;;;;24.46;67.53;99799.75;5055518;28;20049;-80
2022/08/15 11:21:36;;;;;;;10.75;5.75;;;;;;;24.37;67.62;99802.16;5055389;28;20140;-80
2022/08/15 11:24:06;;;;;;;10.15;6.10;;;;;;;24.34;69.70;99810.69;5054550;28;20134;-78
2022/08/15 11:26:36;;;;;;;9.27;5.70;;;;;;;24.39;70.04;99810.69;5053741;28;20435;-78
2022/08/15 11:29:14;;;;;;;12.02;5.78;;;;;;;24.29;70.15;99802.66;5052936;28;20822;-79
2022/08/15 11:31:51;;;;;;;8.20;5.25;;;;;;;24.39;70.60;99809.91;5053607;28;20075;-78
2022/08/15 11:34:24;;;;;;;8.48;5.75;;;;;;;24.35;70.00;99811.50;5057840;28;20530;-79
2022/08/15 11:36:55;;;;;;;6.28;5.43;;;;;;;24.44;68.65;99804.56;5055599;28;20041;-80
2022/08/15 11:39:27;;;;;;;8.98;5.40;;;;;;;24.58;67.90;99813.63;5059603;28;20076;-80
2022/08/15 11:41:58;;;;;;;10.10;5.40;;;;;;;24.67;67.89;99805.88;5055531;28;20053;-78
2022/08/15 11:44:36;;;;;;;14.75;5.05;;;;;;;24.76;67.25;99814.97;5044170;28;20158;-77
2022/08/15 11:47:05;;;;;;;10.18;5.78;;;;;;;24.64;67.52;99820.59;5049372;28;20412;-78
2022/08/15 11:49:37;;;;;;;10.18;5.40;;;;;;;24.61;68.31;99821.13;5050966;28;20079;-76
2022/08/15 11:55:27;;;;;;;8.90;5.18;;;;;;;24.82;67.85;99821.91;5038863;28;20055;-79
2022/08/15 11:57:57;;;;;;;7.93;5.60;;;;;;;24.52;68.07;99820.06;5049886;28;20118;-76
2022/08/15 12:00:29;;;;;;;7.03;5.13;;;;;;;24.48;68.57;99816.31;5057685;28;20567;-76
2022/08/15 12:03:16;;;;;;;10.57;5.30;;;;;;;24.46;68.79;99816.59;5051829;28;20601;-77